createdAt,value
2022-09-20T00:04:04.747Z,18.20
2022-09-20T00:09:06.478Z,18.00
2022-09-20T00:14:08.510Z,17.90
2022-09-20T00:19:17.745Z,18.00
2022-09-20T00:24:19.419Z,17.60
2022-09-20T00:29:21.189Z,17.80
2022-09-20T00:34:22.944Z,17.70
2022-09-20T00:39:24.760Z,17.50
2022-09-20T00:44:53.697Z,17.60
2022-09-20T00:50:28.395Z,17.40
2022-09-20T00:55:30.741Z,17.20
2022-09-20T01:00:32.812Z,16.90
2022-09-20T01:05:35.754Z,16.90
2022-09-20T01:10:38.297Z,17.20
2022-09-20T01:15:42.165Z,17.30
2022-09-20T01:20:45.906Z,17.30
2022-09-20T01:26:12.088Z,17.20
2022-09-20T01:31:30.874Z,16.70
2022-09-20T01:36:54.848Z,16.70
2022-09-20T01:42:07.454Z,17.40
2022-09-20T01:47:37.861Z,17.80
2022-09-20T01:52:51.593Z,16.80
2022-09-20T01:58:11.908Z,17.00
2022-09-20T02:03:16.441Z,17.20
2022-09-20T02:08:55.530Z,17.00
2022-09-20T02:14:28.887Z,16.90
2022-09-20T02:19:41.365Z,16.90
2022-09-20T02:25:04.407Z,16.80
2022-09-20T02:30:14.050Z,17.10
2022-09-20T02:35:45.930Z,16.90
2022-09-20T02:41:12.161Z,16.60
2022-09-20T02:46:30.036Z,16.30
2022-09-20T02:52:04.717Z,15.90
2022-09-20T02:57:12.320Z,16.40
2022-09-20T03:02:50.788Z,15.80
2022-09-20T03:08:20.908Z,15.80
2022-09-20T03:13:53.144Z,15.80
2022-09-20T03:19:15.316Z,15.40
2022-09-20T03:24:42.148Z,15.50
2022-09-20T03:30:08.344Z,15.80
2022-09-20T03:35:32.168Z,16.30
2022-09-20T03:41:09.600Z,16.20
2022-09-20T03:46:29.078Z,16.00
2022-09-20T03:51:34.433Z,16.00
2022-09-20T03:56:54.330Z,15.80
2022-09-20T04:02:52.875Z,16.80
2022-09-20T04:08:26.366Z,17.10
2022-09-20T04:13:42.391Z,17.20
2022-09-20T04:18:44.011Z,17.40
2022-09-20T04:23:59.493Z,17.50
2022-09-20T04:29:40.291Z,17.50
2022-09-20T04:35:11.163Z,17.50
2022-09-20T04:40:29.284Z,17.20
2022-09-20T04:45:49.710Z,17.10
2022-09-20T04:51:03.473Z,16.80
2022-09-20T04:56:36.012Z,16.60
2022-09-20T05:01:52.930Z,16.20
2022-09-20T05:07:31.841Z,15.70
2022-09-20T05:13:03.755Z,15.60
2022-09-20T05:18:26.783Z,15.50
2022-09-20T05:23:51.340Z,15.70
2022-09-20T05:29:12.491Z,15.20
2022-09-20T05:34:33.993Z,14.70
2022-09-20T05:39:35.629Z,15.40
2022-09-20T05:45:03.882Z,16.00
2022-09-20T05:50:32.896Z,16.40
2022-09-20T05:55:51.604Z,16.80
2022-09-20T06:01:15.313Z,17.10
2022-09-20T06:06:32.601Z,17.20
2022-09-20T06:12:02.507Z,17.00
2022-09-20T06:17:27.389Z,17.10
2022-09-20T06:22:37.954Z,16.70
2022-09-20T06:27:56.226Z,17.40
2022-09-20T06:33:08.016Z,17.30
2022-09-20T06:38:32.377Z,17.60
2022-09-20T06:43:36.348Z,17.70
2022-09-20T06:48:38.045Z,17.80
2022-09-20T06:53:41.453Z,18.70
2022-09-20T06:58:43.135Z,18.10
2022-09-20T07:03:44.815Z,18.50
2022-09-20T07:08:47.113Z,19.10
2022-09-20T07:13:53.968Z,18.90
2022-09-20T07:18:55.679Z,19.40
2022-09-20T07:23:57.382Z,19.60
2022-09-20T07:28:59.863Z,19.80
2022-09-20T07:34:01.563Z,19.60
2022-09-20T07:39:03.613Z,19.80
2022-09-20T07:44:05.322Z,20.20
2022-09-20T07:49:07.052Z,20.70
2022-09-20T07:54:08.747Z,20.60
2022-09-20T07:59:10.763Z,20.90
2022-09-20T08:04:12.794Z,21.50
2022-09-20T08:09:14.695Z,21.60
2022-09-20T08:14:18.206Z,21.50
2022-09-20T08:19:22.402Z,21.80
2022-09-20T08:24:24.197Z,21.90
2022-09-20T08:29:25.978Z,22.20
2022-09-20T08:34:28.075Z,22.30
2022-09-20T08:44:59.139Z,22.90
2022-09-20T08:50:17.523Z,22.90
2022-09-20T08:55:26.970Z,23.20
2022-09-20T09:00:33.582Z,23.10
2022-09-20T09:05:40.179Z,23.00
2022-09-20T09:10:44.897Z,23.30
2022-09-20T09:15:51.083Z,23.80
2022-09-20T09:20:52.830Z,23.90
2022-09-20T09:25:55.890Z,23.90
2022-09-20T09:31:13.635Z,23.80
2022-09-20T09:36:20.499Z,24.20
2022-09-20T09:41:25.041Z,24.50
2022-09-20T09:46:30.594Z,24.10
2022-09-20T09:51:32.445Z,24.40
2022-09-20T09:56:55.718Z,24.60
2022-09-20T10:02:02.740Z,24.50
2022-09-20T10:07:17.938Z,24.90
2022-09-20T10:12:34.440Z,24.70
2022-09-20T10:18:03.455Z,25.10
2022-09-20T10:23:39.273Z,24.90
2022-09-20T10:29:01.552Z,25.30
2022-09-20T10:34:49.377Z,25.40
2022-09-20T10:40:09.409Z,25.20
2022-09-20T10:45:36.292Z,25.60
2022-09-20T10:50:44.524Z,25.60
2022-09-20T10:56:25.114Z,25.60
2022-09-20T11:01:32.551Z,26.10
2022-09-20T11:06:48.311Z,26.10
2022-09-20T11:12:21.972Z,26.50
2022-09-20T11:17:32.930Z,26.50
2022-09-20T11:23:08.787Z,26.40
2022-09-20T11:28:27.996Z,26.30
2022-09-20T11:34:08.267Z,26.70
2022-09-20T11:39:45.788Z,26.70
2022-09-20T11:44:47.691Z,26.90
2022-09-20T11:49:52.407Z,26.80
2022-09-20T11:55:03.643Z,26.30
2022-09-20T12:00:06.941Z,27.00
2022-09-20T12:05:26.066Z,27.20
2022-09-20T12:10:33.224Z,27.00
2022-09-20T12:15:37.252Z,26.80
2022-09-20T12:20:41.538Z,26.90
2022-09-20T12:26:05.918Z,26.70
2022-09-20T12:31:31.009Z,27.00
2022-09-20T12:36:35.629Z,27.30
2022-09-20T12:41:57.469Z,26.30
2022-09-20T12:47:11.116Z,26.90
2022-09-20T12:52:29.607Z,27.30
2022-09-20T12:57:32.612Z,26.70
2022-09-20T13:03:15.778Z,27.50
2022-09-20T13:08:27.057Z,26.20
2022-09-20T13:13:39.498Z,25.50
2022-09-20T13:18:41.370Z,26.40
2022-09-20T13:23:52.860Z,26.90
2022-09-20T13:28:56.814Z,27.60
2022-09-20T13:34:21.738Z,26.70
2022-09-20T13:39:42.016Z,27.90
2022-09-20T13:44:43.934Z,27.90
2022-09-20T13:49:45.600Z,27.90
2022-09-20T13:54:47.271Z,28.10
2022-09-20T13:59:50.654Z,28.30
2022-09-20T14:04:55.556Z,27.40
2022-09-20T14:09:58.111Z,27.20
2022-09-20T14:15:02.180Z,27.70
2022-09-20T14:20:04.857Z,26.90
2022-09-20T14:25:12.691Z,26.30
2022-09-20T14:30:29.997Z,26.80
2022-09-20T14:35:32.155Z,27.20
2022-09-20T14:40:43.438Z,26.80
2022-09-20T14:45:56.568Z,26.20
2022-09-20T14:51:16.541Z,25.80
2022-09-20T14:56:39.254Z,25.00
2022-09-20T15:02:06.070Z,25.40
2022-09-20T15:07:10.156Z,25.40
2022-09-20T15:12:17.671Z,24.90
2022-09-20T15:17:21.426Z,24.40
2022-09-20T15:22:23.118Z,24.30
2022-09-20T15:27:28.169Z,24.70
2022-09-20T15:32:30.518Z,24.10
2022-09-20T15:37:32.195Z,24.10
2022-09-20T15:42:34.863Z,24.00
2022-09-20T15:47:38.442Z,24.10
2022-09-20T15:52:40.115Z,24.00
2022-09-20T15:57:41.762Z,23.90
2022-09-20T16:02:43.957Z,23.80
2022-09-20T16:07:45.793Z,23.90
2022-09-20T16:12:47.500Z,23.90
2022-09-20T16:17:49.179Z,23.80
2022-09-20T16:22:51.008Z,23.90
2022-09-20T16:27:52.689Z,23.70
2022-09-20T16:32:54.351Z,23.60
2022-09-20T16:37:56.031Z,23.50
2022-09-20T16:42:57.702Z,23.50
2022-09-20T16:47:59.358Z,23.30
2022-09-20T16:53:01.040Z,23.30
2022-09-20T16:58:02.859Z,24.40
2022-09-20T17:03:04.590Z,23.90
2022-09-20T17:08:06.234Z,23.10
2022-09-20T17:13:07.903Z,22.90
2022-09-20T17:18:12.357Z,22.50
2022-09-20T17:23:17.199Z,22.40
2022-09-20T17:28:18.950Z,22.50
2022-09-20T17:33:21.887Z,22.20
2022-09-20T17:38:23.589Z,21.80
2022-09-20T17:43:25.433Z,21.50
2022-09-20T17:48:27.091Z,21.50
2022-09-20T17:53:30.995Z,21.60
2022-09-20T17:58:35.018Z,21.40
2022-09-20T18:03:38.567Z,21.10
2022-09-20T18:08:41.280Z,21.30
2022-09-20T18:13:43.126Z,21.00
2022-09-20T18:18:46.329Z,20.80
2022-09-20T18:23:49.056Z,20.80
2022-09-20T18:28:54.496Z,20.60
2022-09-20T18:33:57.068Z,20.60
2022-09-20T18:38:59.429Z,20.50
2022-09-20T18:44:02.777Z,20.50
2022-09-20T18:49:09.517Z,20.60
2022-09-20T18:54:12.055Z,20.60
2022-09-20T18:59:22.037Z,20.40
2022-09-20T19:04:29.760Z,20.10
2022-09-20T19:09:56.564Z,20.00
2022-09-20T19:15:29.141Z,20.00
2022-09-20T19:20:56.088Z,19.90
2022-09-20T19:26:18.877Z,19.80
2022-09-20T19:31:26.491Z,19.80
2022-09-20T19:36:38.995Z,19.80
2022-09-20T19:41:58.793Z,19.80
2022-09-20T19:47:43.806Z,19.70
2022-09-20T19:52:45.721Z,19.50
2022-09-20T19:57:47.821Z,19.60
2022-09-20T20:02:50.037Z,19.70
2022-09-20T20:08:19.122Z,19.60
2022-09-20T20:13:43.127Z,19.30
2022-09-20T20:19:01.926Z,19.00
2022-09-20T20:24:18.632Z,19.10
2022-09-20T20:29:20.395Z,19.30
2022-09-20T20:34:22.068Z,19.00
2022-09-20T20:39:23.778Z,19.30
2022-09-20T20:44:26.212Z,19.20
2022-09-20T20:49:27.881Z,19.10
2022-09-20T20:54:29.584Z,19.20
2022-09-20T20:59:31.295Z,18.90
2022-09-20T21:04:32.961Z,19.10
2022-09-20T21:09:34.637Z,19.00
2022-09-20T21:14:36.323Z,19.10
2022-09-20T21:19:38.572Z,19.10
2022-09-20T21:24:40.235Z,19.60
2022-09-20T21:29:41.881Z,19.10
2022-09-20T21:34:43.551Z,19.10
2022-09-20T21:39:45.213Z,19.20
2022-09-20T21:44:46.901Z,19.30
2022-09-20T21:49:48.590Z,19.00
2022-09-20T21:54:50.483Z,19.20
2022-09-20T21:59:52.194Z,19.30
2022-09-20T22:04:53.842Z,19.30
2022-09-20T22:09:55.501Z,19.50
2022-09-20T22:14:57.159Z,19.30
2022-09-20T22:19:58.859Z,19.60
2022-09-20T22:25:00.544Z,19.80
2022-09-20T22:30:04.979Z,19.50
2022-09-20T22:35:07.289Z,19.60
2022-09-20T22:40:09.338Z,19.60
2022-09-20T22:45:11.282Z,19.40
2022-09-20T22:50:13.058Z,19.60
2022-09-20T22:55:14.794Z,19.40
2022-09-20T23:00:16.542Z,19.30
2022-09-20T23:05:18.216Z,19.40
2022-09-20T23:10:19.959Z,19.20
2022-09-20T23:15:21.674Z,19.20
2022-09-20T23:20:23.442Z,19.30
2022-09-20T23:25:25.143Z,19.30
2022-09-20T23:30:26.846Z,19.20
2022-09-20T23:35:28.561Z,19.00
2022-09-20T23:40:30.239Z,18.70
2022-09-20T23:45:32.069Z,18.70
2022-09-20T23:50:33.755Z,18.50
2022-09-20T23:55:35.452Z,18.70
